Madison, Wisconsin
Current Conditions -  °F | °C
As of 11:53 AM on Saturday 25 Oct 2014 (Local Time) from KMSN Reporting Station
Few Clouds Few Clouds  
Wind Chill: 18°   Ceiling: Unl
Heat Index: 18°   Visibility: 10mi
Dew Point:   Wind: 7mph
Humidity: 32%   Direction: 300°WNW
Pressure: 29.96"   Gusts: NA
Location:  43.07°N, 89.39°W
Report Text: KMSN 251653Z 30006KT 10SM FEW070 18/01 A2996 RMK AO2 SLP144 T01830011
Loading
Personal Weather Stations






























Interactive Weather Map New forecast layout! Learn more

10-Day Weather Forecast

Advertisements
Track Severe Weather on mobile